createdAt,value
2019-04-22T00:00:12.620Z,16.41
2019-04-22T00:00:44.508Z,16.43
2019-04-22T00:01:16.831Z,16.5
2019-04-22T00:01:43.563Z,16.43
2019-04-22T00:02:15.179Z,16.47
2019-04-22T00:02:51.311Z,16.39
2019-04-22T00:03:18.346Z,16.36
2019-04-22T00:03:52.304Z,16.35
2019-04-22T00:04:29.461Z,16.38
2019-04-22T00:04:58.339Z,16.42
2019-04-22T00:05:37.480Z,16.39
2019-04-22T00:06:05.139Z,16.41
2019-04-22T00:06:38.913Z,16.35
2019-04-22T00:07:08.279Z,16.28
2019-04-22T00:07:41.715Z,16.32
2019-04-22T00:08:16.275Z,16.26
2019-04-22T00:08:42.704Z,16.26
2019-04-22T00:09:17.020Z,16.32
2019-04-22T00:09:45.423Z,16.32
2019-04-22T00:10:19.173Z,16.21
2019-04-22T00:10:46.527Z,16.32
2019-04-22T00:11:24.943Z,16.35
2019-04-22T00:11:52.745Z,16.26
2019-04-22T00:12:19.314Z,16.26
2019-04-22T00:12:52.726Z,16.24
2019-04-22T00:13:25.690Z,16.23
2019-04-22T00:13:51.752Z,16.32
2019-04-22T00:14:17.502Z,16.35
2019-04-22T00:14:46.161Z,16.29
2019-04-22T00:15:15.082Z,16.23
2019-04-22T00:15:47.068Z,16.23
2019-04-22T00:16:26.248Z,16.15
2019-04-22T00:16:51.352Z,16.2
2019-04-22T00:17:29.892Z,16.13
2019-04-22T00:17:59.805Z,16.2
2019-04-22T00:18:29.925Z,16.16
2019-04-22T00:19:07.680Z,16.13
2019-04-22T00:19:28.801Z,16.16
2019-04-22T00:20:29.773Z,16.17
2019-04-22T00:21:04.227Z,16.08
2019-04-22T00:21:31.556Z,16.04
2019-04-22T00:22:31.571Z,16.1
2019-04-22T00:23:03.159Z,15.98
2019-04-22T00:23:30.510Z,16.09
2019-04-22T00:24:04.246Z,16.04
2019-04-22T00:24:29.800Z,16.12
2019-04-22T00:25:06.879Z,16.05
2019-04-22T00:25:40.875Z,16.08
2019-04-22T00:26:08.520Z,16.13
2019-04-22T00:27:13.526Z,16.15
2019-04-22T00:27:40.415Z,16.08
2019-04-22T00:28:08.040Z,16.17
2019-04-22T00:28:43.425Z,16.17
2019-04-22T00:29:23.959Z,16.1
2019-04-22T00:30:40.289Z,15.95
2019-04-22T00:31:14.198Z,16.04
2019-04-22T00:31:40.189Z,16.04
2019-04-22T00:32:10.980Z,16.04
2019-04-22T00:32:41.578Z,16.05
2019-04-22T00:33:12.859Z,15.95
2019-04-22T00:33:44.927Z,16.05
2019-04-22T00:34:15.702Z,15.97
2019-04-22T00:34:48.022Z,15.94
2019-04-22T00:35:17.708Z,15.95
2019-04-22T00:35:47.947Z,16
2019-04-22T00:36:21.526Z,15.98
2019-04-22T00:36:47.805Z,15.98
2019-04-22T00:37:22.622Z,15.95
2019-04-22T00:37:56.543Z,15.97
2019-04-22T00:38:23.270Z,15.84
2019-04-22T00:38:58.023Z,15.95
2019-04-22T00:39:26.769Z,15.86
2019-04-22T00:39:51.131Z,15.83
2019-04-22T00:40:28.067Z,15.88
2019-04-22T00:40:50.488Z,15.91
2019-04-22T00:41:28.395Z,15.9
2019-04-22T00:41:55.076Z,15.92
2019-04-22T00:42:27.294Z,15.8
2019-04-22T00:43:32.052Z,15.88
2019-04-22T00:44:02.387Z,15.9
2019-04-22T00:44:31.126Z,15.83
2019-04-22T00:45:32.726Z,15.82
2019-04-22T00:46:00.927Z,15.88
2019-04-22T00:46:30.846Z,15.83
2019-04-22T00:47:07.110Z,15.84
2019-04-22T00:47:32.019Z,15.88
2019-04-22T00:48:08.869Z,15.88
2019-04-22T00:48:32.047Z,15.82
2019-04-22T00:49:52.100Z,15.67
2019-04-22T00:50:36.882Z,15.79
2019-04-22T00:51:43.751Z,15.86
2019-04-22T00:52:09.118Z,15.82
2019-04-22T00:52:38.582Z,15.83
2019-04-22T00:53:38.999Z,15.76
2019-04-22T00:54:13.459Z,15.79
2019-04-22T00:54:45.414Z,15.7
2019-04-22T00:55:45.592Z,15.75
2019-04-22T00:56:15.575Z,15.65
2019-04-22T00:56:47.263Z,15.65
2019-04-22T00:57:15.203Z,15.72
2019-04-22T00:57:46.012Z,15.72
2019-04-22T00:58:15.639Z,15.7
2019-04-22T00:58:44.755Z,15.75
2019-04-22T00:59:16.818Z,15.73
2019-04-22T00:59:51.911Z,15.72
2019-04-22T01:00:24.513Z,15.67
2019-04-22T01:00:54.045Z,15.76
2019-04-22T01:01:23.282Z,15.68
2019-04-22T01:02:00.229Z,15.75
2019-04-22T01:02:26.016Z,15.68
2019-04-22T01:03:01.459Z,15.68
2019-04-22T01:03:33.987Z,15.72
2019-04-22T01:04:03.537Z,15.67
2019-04-22T01:04:34.415Z,15.65
2019-04-22T01:05:00.571Z,15.64
2019-04-22T01:05:33.987Z,15.65
2019-04-22T01:06:02.784Z,15.64
2019-04-22T01:06:30.477Z,15.65
2019-04-22T01:07:03.414Z,15.61
2019-04-22T01:07:28.317Z,15.65
2019-04-22T01:08:05.375Z,15.64
2019-04-22T01:08:38.856Z,15.62
2019-04-22T01:09:04.210Z,15.62
2019-04-22T01:09:38.115Z,15.67
2019-04-22T01:10:05.289Z,15.64
2019-04-22T01:10:38.718Z,15.68
2019-04-22T01:11:11.146Z,15.62
2019-04-22T01:11:31.977Z,15.57
2019-04-22T01:12:06.846Z,15.64
2019-04-22T01:12:39.008Z,15.62
2019-04-22T01:13:11.222Z,15.59
2019-04-22T01:13:38.161Z,15.61
2019-04-22T01:14:06.054Z,15.55
2019-04-22T01:14:41.166Z,15.64
2019-04-22T01:15:14.636Z,15.57
2019-04-22T01:15:46.806Z,15.54
2019-04-22T01:16:16.868Z,15.58
2019-04-22T01:16:42.555Z,15.52
2019-04-22T01:17:11.305Z,15.54
2019-04-22T01:17:44.594Z,15.57
2019-04-22T01:18:09.147Z,15.62
2019-04-22T01:18:41.062Z,15.52
2019-04-22T01:19:12.077Z,15.55
2019-04-22T01:19:50.848Z,15.49
2019-04-22T01:20:29.161Z,15.55
2019-04-22T01:21:22.465Z,15.61
2019-04-22T01:21:49.568Z,15.64
2019-04-22T01:22:20.287Z,15.64
2019-04-22T01:22:51.731Z,15.62
2019-04-22T01:23:23.362Z,15.58
2019-04-22T01:23:51.740Z,15.54
2019-04-22T01:24:21.631Z,15.54
2019-04-22T01:24:49.962Z,15.52
2019-04-22T01:25:18.775Z,15.57
2019-04-22T01:25:49.206Z,15.61
2019-04-22T01:26:19.871Z,15.51
2019-04-22T01:26:48.872Z,15.51
2019-04-22T01:27:20.295Z,15.52
2019-04-22T01:27:52.700Z,15.51
2019-04-22T01:28:17.814Z,15.52
2019-04-22T01:28:49.902Z,15.51
2019-04-22T01:29:18.607Z,15.55
2019-04-22T01:29:48.803Z,15.49
2019-04-22T01:30:20.572Z,15.52
2019-04-22T01:30:48.908Z,15.44
2019-04-22T01:31:15.807Z,15.47
2019-04-22T01:31:42.343Z,15.47
2019-04-22T01:32:15.183Z,15.47
2019-04-22T01:32:43.794Z,15.44
2019-04-22T01:33:19.063Z,15.46
2019-04-22T01:33:46.387Z,15.44
2019-04-22T01:34:27.741Z,15.47
2019-04-22T01:34:56.403Z,15.44
2019-04-22T01:35:24.301Z,15.49
2019-04-22T01:36:01.277Z,15.46
2019-04-22T01:36:30.002Z,15.42
2019-04-22T01:37:02.342Z,15.46
2019-04-22T01:37:28.401Z,15.44
2019-04-22T01:37:59.647Z,15.46
2019-04-22T01:38:36.113Z,15.49
2019-04-22T01:39:08.801Z,15.43
2019-04-22T01:39:43.348Z,15.4
2019-04-22T01:40:16.460Z,15.44
2019-04-22T01:40:44.757Z,15.44
2019-04-22T01:41:14.556Z,15.43
2019-04-22T01:42:08.989Z,15.33
2019-04-22T01:42:48.336Z,15.43
2019-04-22T01:43:16.327Z,15.4
2019-04-22T01:43:58.560Z,15.46
2019-04-22T01:44:43.590Z,15.43
2019-04-22T01:45:17.613Z,15.44
2019-04-22T01:45:52.803Z,15.55
2019-04-22T01:46:24.556Z,15.46
2019-04-22T01:46:48.938Z,15.52
2019-04-22T01:47:24.430Z,15.55
2019-04-22T01:47:48.535Z,15.49
2019-04-22T01:48:25.924Z,15.44
2019-04-22T01:48:54.153Z,15.43
2019-04-22T01:49:21.022Z,15.46
2019-04-22T01:49:52.228Z,15.39
2019-04-22T01:50:25.658Z,15.43
2019-04-22T01:50:54.525Z,15.42
2019-04-22T01:51:28.098Z,15.33
2019-04-22T01:52:11.270Z,15.37
2019-04-22T01:52:19.845Z,15.35
2019-04-22T01:53:04.642Z,15.44
2019-04-22T01:53:33.204Z,15.33
2019-04-22T01:54:03.691Z,15.35
2019-04-22T01:54:34.807Z,15.33
2019-04-22T01:55:03.742Z,15.31
2019-04-22T01:55:30.674Z,15.29
2019-04-22T01:56:05.196Z,15.27
2019-04-22T01:56:32.857Z,15.43
2019-04-22T01:57:17.088Z,15.43
2019-04-22T01:57:34.825Z,15.29
2019-04-22T01:57:59.119Z,15.27
2019-04-22T01:58:28.518Z,15.29
2019-04-22T01:58:58.625Z,15.28
2019-04-22T01:59:31.003Z,15.33
2019-04-22T02:00:00.085Z,15.27
2019-04-22T02:00:39.478Z,15.28
2019-04-22T02:01:04.356Z,15.28
2019-04-22T02:01:43.453Z,15.33
2019-04-22T02:02:09.058Z,15.35
2019-04-22T02:02:41.461Z,15.33
2019-04-22T02:03:17.040Z,15.31
2019-04-22T02:03:46.309Z,15.33
2019-04-22T02:04:17.063Z,15.28
2019-04-22T02:04:51.212Z,15.33
2019-04-22T02:05:17.501Z,15.36
2019-04-22T02:05:42.419Z,15.43
2019-04-22T02:06:21.711Z,15.42
2019-04-22T02:06:48.029Z,15.42
2019-04-22T02:07:16.037Z,15.33
2019-04-22T02:07:48.062Z,15.43
2019-04-22T02:08:23.216Z,15.44
2019-04-22T02:08:51.090Z,15.42
2019-04-22T02:09:22.277Z,15.4
2019-04-22T02:09:49.168Z,15.4
2019-04-22T02:10:27.939Z,15.27
2019-04-22T02:11:07.069Z,15.31
2019-04-22T02:11:25.382Z,15.29
2019-04-22T02:11:53.219Z,15.28
2019-04-22T02:12:25.518Z,15.36
2019-04-22T02:12:52.967Z,15.27
2019-04-22T02:13:28.622Z,15.29
2019-04-22T02:13:55.960Z,15.29
2019-04-22T02:14:32.851Z,15.4
2019-04-22T02:14:57.068Z,15.28
2019-04-22T02:15:30.855Z,15.28
2019-04-22T02:15:58.095Z,15.33
2019-04-22T02:16:33.526Z,15.36
2019-04-22T02:17:01.124Z,15.28
2019-04-22T02:18:09.455Z,15.28
2019-04-22T02:19:11.041Z,15.29
2019-04-22T02:19:35.478Z,15.31
2019-04-22T02:20:10.227Z,15.29
2019-04-22T02:20:35.700Z,15.31
2019-04-22T02:21:07.114Z,15.24
2019-04-22T02:21:35.275Z,15.24
2019-04-22T02:22:06.918Z,15.25
2019-04-22T02:22:59.687Z,15.21
2019-04-22T02:23:30.050Z,15.24
2019-04-22T02:24:08.806Z,15.22
2019-04-22T02:24:43.673Z,15.19
2019-04-22T02:25:15.337Z,15.15
2019-04-22T02:25:49.275Z,15.11
2019-04-22T02:26:46.255Z,15.14
2019-04-22T02:27:17.200Z,15.18
2019-04-22T02:27:45.403Z,15.11
2019-04-22T02:28:25.433Z,15.17
2019-04-22T02:29:00.914Z,15.14
2019-04-22T02:29:21.745Z,15.21
2019-04-22T02:29:47.160Z,15.11
2019-04-22T02:30:20.764Z,15.15
2019-04-22T02:31:13.648Z,15.15
2019-04-22T02:31:58.427Z,15.14
2019-04-22T02:32:38.540Z,15.15
2019-04-22T02:33:10.829Z,15.22
2019-04-22T02:33:51.057Z,15.28
2019-04-22T02:34:32.315Z,15.28
2019-04-22T02:35:23.158Z,15.28
2019-04-22T02:35:47.913Z,15.25
2019-04-22T02:36:22.010Z,15.28
2019-04-22T02:37:02.312Z,15.24
2019-04-22T02:37:44.667Z,15.11
2019-04-22T02:38:18.754Z,15.17
2019-04-22T02:38:51.075Z,15.18
2019-04-22T02:39:11.617Z,15.15
2019-04-22T02:40:09.000Z,15.1
2019-04-22T02:40:55.765Z,15.1
2019-04-22T02:41:54.494Z,15.07
2019-04-22T02:42:42.610Z,15.06
2019-04-22T02:43:23.251Z,15.1
2019-04-22T02:44:16.171Z,15.07
2019-04-22T02:44:46.385Z,15.11
2019-04-22T02:45:17.721Z,15.1
2019-04-22T02:46:02.031Z,15.14
2019-04-22T02:46:32.201Z,15.14
2019-04-22T02:48:33.705Z,15.06
2019-04-22T02:49:00.726Z,15.04
2019-04-22T02:49:23.995Z,15.09
2019-04-22T02:49:52.471Z,15.11
2019-04-22T02:50:27.852Z,15.03
2019-04-22T02:51:01.825Z,15.11
2019-04-22T02:51:51.917Z,15.04
2019-04-22T02:52:59.954Z,14.97
2019-04-22T02:54:00.330Z,14.92
2019-04-22T02:55:40.559Z,14.94
2019-04-22T02:56:22.534Z,14.84
2019-04-22T02:56:35.741Z,14.82
2019-04-22T02:57:11.928Z,14.81
2019-04-22T02:57:46.843Z,14.86
2019-04-22T02:58:03.343Z,14.92
2019-04-22T02:59:13.943Z,14.96
2019-04-22T02:59:39.047Z,15.02
2019-04-22T03:00:12.007Z,14.89
2019-04-22T03:00:44.044Z,14.91
2019-04-22T03:01:22.436Z,14.85
2019-04-22T03:01:40.998Z,14.91
2019-04-22T03:02:18.714Z,14.84
2019-04-22T03:04:18.062Z,14.91
2019-04-22T03:04:43.500Z,14.91
2019-04-22T03:05:26.400Z,14.85
2019-04-22T03:06:34.485Z,14.82
2019-04-22T03:06:42.542Z,14.79
2019-04-22T03:07:14.447Z,14.84
2019-04-22T03:07:57.719Z,14.85
2019-04-22T03:08:23.122Z,14.85
2019-04-22T03:08:53.564Z,14.85
2019-04-22T03:09:23.439Z,14.89
2019-04-22T03:09:52.479Z,14.85
2019-04-22T03:10:29.156Z,14.66
2019-04-22T03:11:24.165Z,14.86
2019-04-22T03:12:07.737Z,14.84
2019-04-22T03:12:23.108Z,14.79
2019-04-22T03:12:58.164Z,14.88
2019-04-22T03:13:37.440Z,14.79
2019-04-22T03:14:00.507Z,14.85
2019-04-22T03:14:29.498Z,14.85
2019-04-22T03:14:59.245Z,14.85
2019-04-22T03:15:29.593Z,14.91
2019-04-22T03:17:08.372Z,14.86
2019-04-22T03:17:38.119Z,14.88
2019-04-22T03:18:08.571Z,14.86
2019-04-22T03:18:46.342Z,14.85
2019-04-22T03:19:33.766Z,14.91
2019-04-22T03:19:58.349Z,14.91
2019-04-22T03:20:08.372Z,14.82
2019-04-22T03:20:49.865Z,14.78
2019-04-22T03:21:10.105Z,14.81
2019-04-22T03:22:27.791Z,14.85
2019-04-22T03:22:45.508Z,14.82
2019-04-22T03:23:24.768Z,14.91
2019-04-22T03:23:54.080Z,14.91
2019-04-22T03:24:55.661Z,14.92
2019-04-22T03:25:49.310Z,14.89
2019-04-22T03:26:26.786Z,14.89
2019-04-22T03:27:29.295Z,14.96
2019-04-22T03:28:08.213Z,14.92
2019-04-22T03:28:36.873Z,14.84
2019-04-22T03:29:27.863Z,14.89
2019-04-22T03:30:32.928Z,14.88
2019-04-22T03:31:02.900Z,14.91
2019-04-22T03:33:39.717Z,14.69
2019-04-22T03:35:30.138Z,14.79
2019-04-22T03:36:40.973Z,14.66
2019-04-22T03:37:20.228Z,14.68
2019-04-22T03:38:06.986Z,14.66
2019-04-22T03:39:14.816Z,14.65
2019-04-22T03:39:50.275Z,14.68
2019-04-22T03:41:27.025Z,14.7
2019-04-22T03:42:31.619Z,14.66
2019-04-22T03:42:55.598Z,14.63
2019-04-22T03:43:23.052Z,14.6
2019-04-22T03:44:07.450Z,14.69
2019-04-22T03:44:38.171Z,14.66
2019-04-22T03:44:59.890Z,14.65
2019-04-22T03:45:45.486Z,14.62
2019-04-22T03:46:29.817Z,14.63
2019-04-22T03:47:33.343Z,14.66
2019-04-22T03:47:40.972Z,14.6
2019-04-22T03:48:35.706Z,14.59
2019-04-22T03:49:27.983Z,14.65
2019-04-22T03:49:45.172Z,14.65
2019-04-22T03:50:27.677Z,14.69
2019-04-22T03:51:15.897Z,14.68
2019-04-22T03:51:45.452Z,14.66
2019-04-22T03:52:10.460Z,14.66
2019-04-22T03:52:52.487Z,14.7
2019-04-22T03:53:20.706Z,14.68
2019-04-22T03:53:38.060Z,14.66
2019-04-22T03:54:18.822Z,14.7
2019-04-22T03:54:45.318Z,14.63
2019-04-22T03:56:36.365Z,14.59
2019-04-22T03:58:10.338Z,14.6
2019-04-22T03:58:56.497Z,14.59
2019-04-22T03:59:26.410Z,14.59
2019-04-22T04:00:24.343Z,14.62
2019-04-22T04:01:05.402Z,14.58
2019-04-22T04:01:29.391Z,14.62
2019-04-22T04:02:12.873Z,14.62
2019-04-22T04:02:28.630Z,14.65
2019-04-22T04:03:18.876Z,14.55
2019-04-22T04:04:08.721Z,14.65
2019-04-22T04:04:58.161Z,14.59
2019-04-22T04:05:37.105Z,14.59
2019-04-22T04:06:39.464Z,14.66
2019-04-22T04:07:10.338Z,14.65
2019-04-22T04:07:39.788Z,14.63
2019-04-22T04:08:03.339Z,14.63
2019-04-22T04:08:32.629Z,14.65
2019-04-22T04:09:08.751Z,14.59
2019-04-22T04:10:10.004Z,14.65
2019-04-22T04:10:47.472Z,14.69
2019-04-22T04:10:57.360Z,14.53
2019-04-22T04:11:51.499Z,14.59
2019-04-22T04:12:12.088Z,14.69
2019-04-22T04:13:07.750Z,14.62
2019-04-22T04:13:38.987Z,14.59
2019-04-22T04:14:17.924Z,14.6
2019-04-22T04:14:53.347Z,14.58
2019-04-22T04:15:33.841Z,14.62
2019-04-22T04:16:19.040Z,14.59
2019-04-22T04:17:20.090Z,14.63
2019-04-22T04:17:20.093Z,14.62
2019-04-22T04:18:39.070Z,14.66
2019-04-22T04:18:55.906Z,14.62
2019-04-22T04:20:10.331Z,14.54
2019-04-22T04:20:28.297Z,14.51
2019-04-22T04:20:58.078Z,14.5
2019-04-22T04:21:46.638Z,14.5
2019-04-22T04:23:07.600Z,14.48
2019-04-22T04:24:53.278Z,14.47
2019-04-22T04:25:42.052Z,14.44
2019-04-22T04:26:00.561Z,14.47
2019-04-22T04:26:45.052Z,14.43
2019-04-22T04:29:34.960Z,14.41
2019-04-22T04:29:54.093Z,14.36
2019-04-22T04:31:24.371Z,14.47
2019-04-22T04:31:53.092Z,14.44
2019-04-22T04:32:26.655Z,14.41
2019-04-22T04:32:52.242Z,14.4
2019-04-22T04:33:15.593Z,14.43
2019-04-22T04:33:46.317Z,14.48
2019-04-22T04:34:27.945Z,14.41
2019-04-22T04:35:02.921Z,14.33
2019-04-22T04:35:29.832Z,14.44
2019-04-22T04:36:54.335Z,14.35
2019-04-22T04:37:40.074Z,14.41
2019-04-22T04:38:20.218Z,14.35
2019-04-22T04:38:51.545Z,14.33
2019-04-22T04:39:24.391Z,14.35
2019-04-22T04:40:26.256Z,14.4
2019-04-22T04:40:57.196Z,14.37
2019-04-22T04:42:12.828Z,14.3
2019-04-22T04:42:38.306Z,14.32
2019-04-22T04:43:34.841Z,14.33
2019-04-22T04:44:47.593Z,14.4
2019-04-22T04:45:23.276Z,14.4
2019-04-22T04:46:44.247Z,14.37
2019-04-22T04:47:11.171Z,14.33
2019-04-22T04:48:50.879Z,14.35
2019-04-22T04:49:56.710Z,14.35
2019-04-22T04:50:46.782Z,14.43
2019-04-22T04:51:23.624Z,14.37
2019-04-22T04:53:05.856Z,14.44
2019-04-22T04:53:40.756Z,14.4
2019-04-22T04:54:47.426Z,14.35
2019-04-22T04:55:27.629Z,14.33
2019-04-22T04:55:45.406Z,14.33
2019-04-22T04:56:19.701Z,14.3
2019-04-22T04:56:46.386Z,14.43
2019-04-22T04:57:23.191Z,14.41
2019-04-22T04:58:12.795Z,14.36
2019-04-22T05:00:21.382Z,14.43
2019-04-22T05:01:10.330Z,14.33
2019-04-22T05:01:29.777Z,14.32
2019-04-22T05:02:19.515Z,14.4
2019-04-22T05:02:37.079Z,14.3
2019-04-22T05:02:57.977Z,14.37
2019-04-22T05:03:38.974Z,14.32
2019-04-22T05:04:03.900Z,14.43
2019-04-22T05:05:31.230Z,14.4
2019-04-22T05:06:05.319Z,14.47
2019-04-22T05:07:08.396Z,14.43
2019-04-22T05:07:47.115Z,14.48
2019-04-22T05:08:11.770Z,14.41
2019-04-22T05:09:00.621Z,14.43
2019-04-22T05:09:18.156Z,14.47
2019-04-22T05:09:42.581Z,14.45
2019-04-22T05:10:49.081Z,14.41
2019-04-22T05:11:13.337Z,14.3
2019-04-22T05:11:51.728Z,14.36
2019-04-22T05:12:24.329Z,14.37
2019-04-22T05:12:51.725Z,14.35
2019-04-22T05:13:10.007Z,14.4
2019-04-22T05:15:03.507Z,14.32
2019-04-22T05:15:59.252Z,14.28
2019-04-22T05:16:24.167Z,14.29
2019-04-22T05:16:46.167Z,14.28
2019-04-22T05:17:17.609Z,14.22
2019-04-22T05:18:18.527Z,14.23
2019-04-22T05:18:50.331Z,14.26
2019-04-22T05:19:14.935Z,14.23
2019-04-22T05:19:46.298Z,14.26
2019-04-22T05:20:59.355Z,14.32
2019-04-22T05:21:16.121Z,14.37
2019-04-22T05:21:52.913Z,14.4
2019-04-22T05:22:33.445Z,14.37
2019-04-22T05:22:44.083Z,14.47
2019-04-22T05:23:23.156Z,14.45
2019-04-22T05:23:52.221Z,14.53
2019-04-22T05:24:22.504Z,14.48
2019-04-22T05:24:50.509Z,14.5
2019-04-22T05:25:22.058Z,14.47
2019-04-22T05:25:48.451Z,14.58
2019-04-22T05:26:27.570Z,14.53
2019-04-22T05:26:56.530Z,14.51
2019-04-22T05:27:27.804Z,14.45
2019-04-22T05:27:50.550Z,14.5
2019-04-22T05:28:23.523Z,14.53
2019-04-22T05:28:57.154Z,14.5
2019-04-22T05:29:35.905Z,14.53
2019-04-22T05:30:31.833Z,14.51
2019-04-22T05:31:00.350Z,14.47
2019-04-22T05:31:31.966Z,14.47
2019-04-22T05:31:56.245Z,14.47
2019-04-22T05:32:30.538Z,14.5
2019-04-22T05:33:13.892Z,14.53
2019-04-22T05:33:27.307Z,14.55
2019-04-22T05:34:03.988Z,14.62
2019-04-22T05:34:27.846Z,14.58
2019-04-22T05:34:59.160Z,14.63
2019-04-22T05:35:30.668Z,14.6
2019-04-22T05:36:06.841Z,14.68
2019-04-22T05:36:32.593Z,14.63
2019-04-22T05:37:06.944Z,14.63
2019-04-22T05:37:32.633Z,14.68
2019-04-22T05:38:09.509Z,14.66
2019-04-22T05:38:39.696Z,14.65
2019-04-22T05:39:05.607Z,14.77
2019-04-22T05:39:35.482Z,14.7
2019-04-22T05:40:16.154Z,14.63
2019-04-22T05:40:34.006Z,14.63
2019-04-22T05:41:08.351Z,14.66
2019-04-22T05:41:41.238Z,14.6
2019-04-22T05:42:12.329Z,14.6
2019-04-22T05:42:42.452Z,14.62
2019-04-22T05:43:13.648Z,14.62
2019-04-22T05:43:49.360Z,14.6
2019-04-22T05:44:14.254Z,14.73
2019-04-22T05:44:48.973Z,14.65
2019-04-22T05:45:18.947Z,14.68
2019-04-22T05:45:50.785Z,14.66
2019-04-22T05:46:15.166Z,14.65
2019-04-22T05:46:47.351Z,14.79
2019-04-22T05:47:19.261Z,14.7
2019-04-22T05:47:51.693Z,14.72
2019-04-22T05:48:24.028Z,14.72
2019-04-22T05:49:23.326Z,14.84
2019-04-22T05:49:54.429Z,14.84
2019-04-22T05:50:22.710Z,14.82
2019-04-22T05:50:56.016Z,14.81
2019-04-22T05:51:30.929Z,14.82
2019-04-22T05:51:54.414Z,14.85
2019-04-22T05:52:24.668Z,14.82
2019-04-22T05:52:59.995Z,14.77
2019-04-22T05:53:25.240Z,14.85
2019-04-22T05:54:00.968Z,14.82
2019-04-22T05:54:32.550Z,14.82
2019-04-22T05:55:01.831Z,14.91
2019-04-22T05:55:35.615Z,14.85
2019-04-22T05:56:01.360Z,14.96
2019-04-22T05:57:00.071Z,15
2019-04-22T05:57:30.883Z,15.02
2019-04-22T05:57:55.988Z,15.1
2019-04-22T05:58:37.933Z,15.02
2019-04-22T05:59:09.177Z,15.1
2019-04-22T05:59:37.335Z,15.17
2019-04-22T06:00:12.634Z,15.14
2019-04-22T06:01:03.472Z,15.19
2019-04-22T06:02:52.778Z,15.27
2019-04-22T06:03:08.352Z,15.25
2019-04-22T06:03:45.910Z,15.24
2019-04-22T06:04:13.415Z,15.28
2019-04-22T06:04:44.761Z,15.25
2019-04-22T06:05:16.400Z,15.29
2019-04-22T06:06:00.314Z,15.28
2019-04-22T06:06:39.773Z,15.31
2019-04-22T06:07:12.945Z,15.28
2019-04-22T06:07:45.084Z,15.31
2019-04-22T06:08:16.528Z,15.31
2019-04-22T06:08:50.551Z,15.31
2019-04-22T06:09:24.139Z,15.28
2019-04-22T06:09:48.720Z,15.28
2019-04-22T06:10:38.820Z,15.35
2019-04-22T06:10:51.482Z,15.29
2019-04-22T06:11:25.461Z,15.33
2019-04-22T06:11:44.446Z,15.28
2019-04-22T06:12:16.812Z,15.35
2019-04-22T06:12:47.809Z,15.39
2019-04-22T06:13:17.523Z,15.43
2019-04-22T06:13:51.524Z,15.4
2019-04-22T06:14:19.903Z,15.36
2019-04-22T06:14:53.607Z,15.47
2019-04-22T06:15:23.209Z,15.47
2019-04-22T06:15:52.407Z,15.44
2019-04-22T06:16:30.499Z,15.42
2019-04-22T06:16:56.966Z,15.43
2019-04-22T06:17:29.888Z,15.44
2019-04-22T06:18:00.935Z,15.52
2019-04-22T06:18:33.108Z,15.57
2019-04-22T06:19:02.546Z,15.58
2019-04-22T06:19:31.134Z,15.52
2019-04-22T06:20:01.992Z,15.62
2019-04-22T06:20:32.019Z,15.65
2019-04-22T06:21:05.072Z,15.55
2019-04-22T06:21:36.887Z,15.57
2019-04-22T06:22:04.055Z,15.64
2019-04-22T06:22:42.796Z,15.75
2019-04-22T06:23:11.999Z,15.75
2019-04-22T06:23:39.107Z,15.73
2019-04-22T06:24:15.501Z,15.75
2019-04-22T06:24:41.790Z,15.83
2019-04-22T06:26:18.786Z,15.86
2019-04-22T06:27:14.407Z,15.97
2019-04-22T06:27:40.261Z,15.97
2019-04-22T06:28:21.847Z,15.92
2019-04-22T06:29:14.625Z,15.98
2019-04-22T06:29:41.032Z,16.05
2019-04-22T06:30:13.766Z,16
2019-04-22T06:30:48.231Z,16.02
2019-04-22T06:32:10.039Z,15.95
2019-04-22T06:32:26.168Z,16.01
2019-04-22T06:32:46.712Z,16.04
2019-04-22T06:33:20.038Z,15.97
2019-04-22T06:33:54.248Z,16
2019-04-22T06:34:21.951Z,15.98
2019-04-22T06:34:57.856Z,16.04
2019-04-22T06:35:29.418Z,16.05
2019-04-22T06:35:55.930Z,16.08
2019-04-22T06:36:28.863Z,16.12
2019-04-22T06:36:59.076Z,16.16
2019-04-22T06:37:54.575Z,16.24
2019-04-22T06:38:15.816Z,16.21
2019-04-22T06:38:58.816Z,16.24
2019-04-22T06:39:58.569Z,16.32
2019-04-22T06:40:31.356Z,16.31
2019-04-22T06:41:08.474Z,16.36
2019-04-22T06:41:32.868Z,16.41
2019-04-22T06:42:07.705Z,16.41
2019-04-22T06:42:34.644Z,16.42
2019-04-22T06:43:34.779Z,16.39
2019-04-22T06:44:10.618Z,16.49
2019-04-22T06:44:35.760Z,16.42
2019-04-22T06:45:10.556Z,16.49
2019-04-22T06:45:33.605Z,16.49
2019-04-22T06:46:07.919Z,16.42
2019-04-22T06:46:39.492Z,16.43
2019-04-22T06:47:39.443Z,16.54
2019-04-22T06:47:50.810Z,16.58
2019-04-22T06:48:18.771Z,16.47
2019-04-22T06:48:54.248Z,16.61
2019-04-22T06:49:15.953Z,16.56
2019-04-22T06:49:41.323Z,16.68
2019-04-22T06:50:16.187Z,16.68
2019-04-22T06:50:41.493Z,16.69
2019-04-22T06:51:10.982Z,16.69
2019-04-22T06:51:44.652Z,16.79
2019-04-22T06:52:17.587Z,16.79
2019-04-22T06:52:44.977Z,16.87
2019-04-22T06:53:16.111Z,16.93
2019-04-22T06:54:01.569Z,16.93
2019-04-22T06:54:21.266Z,16.97
2019-04-22T06:54:48.573Z,16.91
2019-04-22T06:55:14.982Z,17.04
2019-04-22T06:55:45.239Z,16.97
2019-04-22T06:56:15.395Z,17.09
2019-04-22T06:56:48.266Z,17.19
2019-04-22T06:57:19.051Z,17.23
2019-04-22T06:57:50.696Z,17.46
2019-04-22T06:58:34.454Z,17.67
2019-04-22T06:58:52.132Z,17.94
2019-04-22T06:59:24.585Z,18.1
2019-04-22T06:59:51.391Z,18.4
2019-04-22T07:00:24.265Z,18.6
2019-04-22T07:00:51.833Z,18.9
2019-04-22T07:02:31.814Z,19.58
2019-04-22T07:03:18.681Z,19.79
2019-04-22T07:03:56.754Z,20.32
2019-04-22T07:04:26.795Z,20.36
2019-04-22T07:05:00.810Z,20.67
2019-04-22T07:05:32.410Z,20.8
2019-04-22T07:06:19.203Z,20.88
2019-04-22T07:06:34.657Z,21
2019-04-22T07:07:06.315Z,21.06
2019-04-22T07:07:30.969Z,21.06
2019-04-22T07:08:15.650Z,21.15
2019-04-22T07:09:40.950Z,21.75
2019-04-22T07:10:22.037Z,21.8
2019-04-22T07:10:41.863Z,21.93
2019-04-22T07:11:05.595Z,22.06
2019-04-22T07:11:42.807Z,22.13
2019-04-22T07:12:16.839Z,22.1
2019-04-22T07:12:41.286Z,22.13
2019-04-22T07:13:16.084Z,22.32
2019-04-22T07:13:48.134Z,22.57
2019-04-22T07:14:28.069Z,22.63
2019-04-22T07:14:48.284Z,22.63
2019-04-22T07:15:35.065Z,22.65
2019-04-22T07:16:24.906Z,22.73
2019-04-22T07:17:06.899Z,22.54
2019-04-22T07:17:27.383Z,22.54
2019-04-22T07:17:54.834Z,22.54
2019-04-22T07:18:29.550Z,22.66
2019-04-22T07:18:54.313Z,22.59
2019-04-22T07:19:27.453Z,22.78
2019-04-22T07:19:54.298Z,22.54
2019-04-22T07:20:30.010Z,22.68
2019-04-22T07:21:00.826Z,22.85
2019-04-22T07:21:30.224Z,23.1
2019-04-22T07:22:02.855Z,23.23
2019-04-22T07:22:44.824Z,23.31
2019-04-22T07:23:07.823Z,23.44
2019-04-22T07:24:19.878Z,23.84
2019-04-22T07:25:02.961Z,23.98
2019-04-22T07:25:40.452Z,24.14
2019-04-22T07:26:07.269Z,24.23
2019-04-22T07:26:36.039Z,24.36
2019-04-22T07:27:09.845Z,24.32
2019-04-22T07:27:40.278Z,24.53
2019-04-22T07:28:43.637Z,24.69
2019-04-22T07:29:11.934Z,24.6
2019-04-22T07:29:46.280Z,24.4
2019-04-22T07:30:44.450Z,24.65
2019-04-22T07:31:15.473Z,24.86
2019-04-22T07:31:49.175Z,25.18
2019-04-22T07:32:20.449Z,25.13
2019-04-22T07:33:27.574Z,25.5
2019-04-22T07:33:57.853Z,25.68
2019-04-22T07:34:26.315Z,25.72
2019-04-22T07:34:51.692Z,25.96
2019-04-22T07:35:28.355Z,25.87
2019-04-22T07:36:05.981Z,26.16
2019-04-22T07:36:45.373Z,26.22
2019-04-22T07:36:58.239Z,26.06
2019-04-22T07:37:53.675Z,25.98
2019-04-22T07:38:35.477Z,25.88
2019-04-22T07:38:56.303Z,25.68
2019-04-22T07:39:29.563Z,25.95
2019-04-22T07:39:55.955Z,26.15
2019-04-22T07:40:33.909Z,26.16
2019-04-22T07:40:55.122Z,26.37
2019-04-22T07:41:31.569Z,26.4
2019-04-22T07:42:05.073Z,26.41
2019-04-22T07:43:04.122Z,26.36
2019-04-22T07:43:51.296Z,26.31
2019-04-22T07:44:12.934Z,26.18
2019-04-22T07:44:44.546Z,26.09
2019-04-22T07:45:09.612Z,25.9
2019-04-22T07:45:42.125Z,26.16
2019-04-22T07:46:06.674Z,26.33
2019-04-22T07:46:41.284Z,26.26
2019-04-22T07:47:18.243Z,26.34
2019-04-22T07:48:18.647Z,26.38
2019-04-22T07:48:44.598Z,26.45
2019-04-22T07:49:18.096Z,26.59
2019-04-22T07:49:42.557Z,26.73
2019-04-22T07:50:25.148Z,26.6
2019-04-22T07:50:55.481Z,26.59
2019-04-22T07:51:12.832Z,26.8
2019-04-22T07:51:43.463Z,27.12
2019-04-22T07:52:15.686Z,27.33
2019-04-22T07:52:44.768Z,27.26
2019-04-22T07:53:15.520Z,27.1